createdAt,value
2019-02-04T00:02:23.340Z,8.07
2019-02-04T00:04:54.266Z,9.27
2019-02-04T00:07:25.269Z,12.77
2019-02-04T00:09:56.136Z,9.73
2019-02-04T00:12:27.083Z,10.37
2019-02-04T00:14:57.981Z,10.83
2019-02-04T00:17:28.856Z,10.73
2019-02-04T00:19:59.840Z,12.27
2019-02-04T00:22:31.817Z,9.23
2019-02-04T00:25:02.797Z,7.90
2019-02-04T00:27:33.677Z,6.73
2019-02-04T00:30:05.289Z,8.00
2019-02-04T00:32:36.295Z,9.10
2019-02-04T00:35:07.325Z,11.90
2019-02-04T00:37:38.191Z,11.00
2019-02-04T00:40:13.572Z,9.13
2019-02-04T00:42:45.391Z,8.17
2019-02-04T00:45:17.580Z,9.67
2019-02-04T00:47:48.432Z,9.60
2019-02-04T00:50:19.712Z,13.93
2019-02-04T00:52:50.644Z,10.53
2019-02-04T00:55:21.661Z,10.27
2019-02-04T00:57:52.551Z,10.87
2019-02-04T01:00:26.842Z,11.10
2019-02-04T01:02:58.070Z,15.87
2019-02-04T01:05:30.039Z,12.97
2019-02-04T01:08:01.456Z,10.50
2019-02-04T01:10:32.459Z,11.50
2019-02-04T01:13:05.143Z,14.30
2019-02-04T01:15:36.024Z,10.30
2019-02-04T01:18:06.933Z,10.70
2019-02-04T01:20:38.165Z,12.37
2019-02-04T01:23:10.068Z,13.03
2019-02-04T01:25:41.029Z,11.03
2019-02-04T01:28:11.980Z,15.30
2019-02-04T01:30:42.994Z,13.77
2019-02-04T01:33:14.150Z,15.63
2019-02-04T01:35:45.088Z,12.10
2019-02-04T01:38:15.995Z,13.87
2019-02-04T01:40:46.866Z,15.80
2019-02-04T01:43:17.925Z,12.83
2019-02-04T01:45:49.186Z,14.23
2019-02-04T01:48:20.979Z,14.07
2019-02-04T01:50:51.851Z,16.47
2019-02-04T01:53:23.185Z,13.33
2019-02-04T01:55:54.009Z,15.57
2019-02-04T01:58:25.311Z,12.93
2019-02-04T02:00:56.406Z,13.93
2019-02-04T02:03:27.282Z,20.50
2019-02-04T02:05:58.164Z,11.60
2019-02-04T02:08:30.230Z,10.63
2019-02-04T02:11:01.433Z,14.10
2019-02-04T02:13:32.296Z,11.53
2019-02-04T02:16:03.266Z,10.70
2019-02-04T02:18:34.209Z,13.03
2019-02-04T02:21:05.267Z,13.10
2019-02-04T02:23:36.344Z,16.83
2019-02-04T02:26:07.396Z,11.90
2019-02-04T02:28:38.696Z,13.27
2019-02-04T02:31:09.554Z,11.90
2019-02-04T02:33:40.420Z,11.00
2019-02-04T02:36:11.478Z,11.83
2019-02-04T02:38:42.413Z,13.50
2019-02-04T02:41:13.338Z,10.50
2019-02-04T02:43:44.409Z,13.30
2019-02-04T02:46:15.340Z,13.80
2019-02-04T02:48:46.733Z,11.47
2019-02-04T02:51:17.588Z,17.33
2019-02-04T02:53:48.483Z,17.27
2019-02-04T02:56:19.395Z,16.77
2019-02-04T02:58:50.269Z,12.80
2019-02-04T03:01:21.174Z,13.50
2019-02-04T03:03:52.048Z,16.37
2019-02-04T03:06:22.936Z,15.27
2019-02-04T03:08:53.834Z,14.67
2019-02-04T03:11:24.706Z,16.83
2019-02-04T03:13:55.785Z,22.23
2019-02-04T03:16:27.005Z,17.00
2019-02-04T03:18:57.893Z,14.17
2019-02-04T03:21:28.775Z,18.50
2019-02-04T03:24:00.786Z,17.93
2019-02-04T03:26:32.017Z,16.60
2019-02-04T03:29:02.989Z,18.47
2019-02-04T03:31:39.037Z,21.10
2019-02-04T03:34:08.206Z,18.90
2019-02-04T03:36:39.186Z,17.00
2019-02-04T03:39:10.454Z,18.73
2019-02-04T03:41:41.737Z,22.77
2019-02-04T03:44:15.321Z,18.27
2019-02-04T03:46:46.371Z,24.50
2019-02-04T03:49:17.281Z,22.40
2019-02-04T03:51:48.472Z,22.07
2019-02-04T03:54:19.590Z,23.27
2019-02-04T03:56:52.347Z,22.77
2019-02-04T03:59:23.353Z,22.03
2019-02-04T04:01:54.495Z,21.23
2019-02-04T04:04:25.590Z,20.53
2019-02-04T04:06:56.481Z,22.37
2019-02-04T04:09:27.408Z,20.97
2019-02-04T04:11:58.686Z,23.70
2019-02-04T04:14:32.071Z,25.03
2019-02-04T04:17:04.088Z,22.17
2019-02-04T04:19:35.216Z,22.50
2019-02-04T04:22:06.108Z,27.40
2019-02-04T04:24:37.012Z,23.53
2019-02-04T04:27:07.913Z,22.07
2019-02-04T04:29:38.912Z,21.07
2019-02-04T04:32:09.924Z,20.77
2019-02-04T04:34:40.832Z,23.97
2019-02-04T04:37:11.752Z,25.43
2019-02-04T04:39:42.971Z,25.17
2019-02-04T04:42:13.849Z,17.23
2019-02-04T04:44:44.924Z,19.87
2019-02-04T04:47:15.994Z,21.40
2019-02-04T04:49:48.695Z,21.33
2019-02-04T04:52:19.588Z,23.07
2019-02-04T04:54:50.468Z,22.53
2019-02-04T04:57:21.349Z,21.93
2019-02-04T04:59:52.345Z,26.60
2019-02-04T05:02:23.291Z,29.60
2019-02-04T05:04:54.235Z,24.80
2019-02-04T05:07:25.587Z,20.37
2019-02-04T05:09:56.618Z,28.90
2019-02-04T05:12:27.480Z,26.97
2019-02-04T05:14:58.367Z,25.63
2019-02-04T05:17:29.635Z,26.33
2019-02-04T05:20:00.819Z,22.73
2019-02-04T05:22:31.739Z,26.37
2019-02-04T05:25:02.659Z,21.73
2019-02-04T05:27:34.632Z,24.13
2019-02-04T05:30:07.628Z,24.07
2019-02-04T05:32:38.569Z,23.80
2019-02-04T05:35:14.440Z,24.40
2019-02-04T05:37:45.343Z,22.00
2019-02-04T05:40:16.981Z,23.83
2019-02-04T05:42:52.048Z,22.53
2019-02-04T05:45:23.571Z,30.93
2019-02-04T05:47:54.508Z,24.27
2019-02-04T05:50:25.435Z,31.57
2019-02-04T05:52:56.358Z,28.47
2019-02-04T05:55:30.365Z,22.70
2019-02-04T05:58:03.238Z,24.63
2019-02-04T06:00:37.978Z,22.77
2019-02-04T06:03:08.969Z,27.83
2019-02-04T06:05:40.950Z,30.77
2019-02-04T06:08:11.861Z,32.97
2019-02-04T06:10:42.757Z,28.87
2019-02-04T06:13:13.759Z,22.23
2019-02-04T06:15:44.761Z,22.27
2019-02-04T06:18:15.640Z,26.23
2019-02-04T06:20:46.926Z,21.30
2019-02-04T06:23:17.926Z,21.70
2019-02-04T06:25:48.839Z,19.53
2019-02-04T06:28:19.793Z,16.83
2019-02-04T06:30:50.717Z,20.83
2019-02-04T06:33:21.847Z,16.43
2019-02-04T06:35:52.746Z,19.70
2019-02-04T06:38:24.693Z,18.70
2019-02-04T06:40:55.647Z,15.90
2019-02-04T06:43:26.634Z,19.67
2019-02-04T06:45:57.800Z,19.60
2019-02-04T06:48:28.781Z,17.13
2019-02-04T06:50:59.686Z,19.77
2019-02-04T06:53:30.569Z,25.50
2019-02-04T06:56:01.443Z,19.87
2019-02-04T06:58:32.321Z,19.97
2019-02-04T07:01:03.219Z,21.17
2019-02-04T07:03:34.097Z,20.90
2019-02-04T07:06:05.217Z,23.60
2019-02-04T07:08:36.234Z,19.07
2019-02-04T07:11:07.261Z,19.93
2019-02-04T07:13:42.112Z,18.60
2019-02-04T07:16:10.661Z,20.97
2019-02-04T07:18:41.535Z,18.53
2019-02-04T07:21:12.460Z,20.83
2019-02-04T07:23:43.770Z,19.10
2019-02-04T07:26:15.925Z,20.07
2019-02-04T07:28:46.811Z,17.33
2019-02-04T07:31:17.701Z,14.90
2019-02-04T07:33:48.587Z,20.10
2019-02-04T07:36:19.867Z,19.87
2019-02-04T07:38:50.840Z,15.40
2019-02-04T07:41:21.731Z,16.87
2019-02-04T07:43:53.583Z,16.37
2019-02-04T07:46:25.165Z,16.50
2019-02-04T07:48:56.158Z,16.03
2019-02-04T07:51:27.223Z,16.90
2019-02-04T07:53:58.096Z,14.17
2019-02-04T07:56:29.069Z,18.17
2019-02-04T07:58:59.969Z,15.37
2019-02-04T08:01:30.880Z,15.00
2019-02-04T08:04:01.755Z,16.23
2019-02-04T08:06:33.273Z,13.50
2019-02-04T08:09:06.325Z,16.07
2019-02-04T08:11:37.219Z,14.13
2019-02-04T08:14:08.561Z,12.87
2019-02-04T08:16:39.457Z,12.70
2019-02-04T08:19:10.409Z,12.53
2019-02-04T08:21:41.345Z,17.43
2019-02-04T08:24:12.258Z,14.93
2019-02-04T08:26:44.674Z,17.50
2019-02-04T08:29:16.527Z,14.20
2019-02-04T08:31:47.411Z,13.07
2019-02-04T08:34:18.353Z,13.17
2019-02-04T08:36:49.690Z,15.40
2019-02-04T08:39:20.572Z,13.63
2019-02-04T08:41:53.066Z,14.50
2019-02-04T08:44:24.035Z,15.87
2019-02-04T08:46:55.158Z,9.83
2019-02-04T08:49:26.170Z,12.67
2019-02-04T08:51:57.072Z,13.90
2019-02-04T08:54:28.513Z,16.53
2019-02-04T08:56:59.426Z,12.30
2019-02-04T08:59:30.435Z,11.77
2019-02-04T09:02:01.427Z,14.67
2019-02-04T09:04:32.284Z,13.83
2019-02-04T09:07:03.167Z,13.47
2019-02-04T09:09:34.036Z,13.63
2019-02-04T09:12:05.905Z,13.33
2019-02-04T09:14:36.831Z,12.20
2019-02-04T09:17:07.717Z,10.90
2019-02-04T09:19:38.592Z,16.43
2019-02-04T09:22:09.866Z,14.80
2019-02-04T09:24:40.905Z,12.40
2019-02-04T09:27:11.773Z,12.93
2019-02-04T09:29:42.665Z,15.47
2019-02-04T09:32:13.542Z,11.47
2019-02-04T09:34:44.725Z,12.27
2019-02-04T09:37:16.676Z,13.50
2019-02-04T09:39:47.724Z,14.50
2019-02-04T09:42:18.778Z,12.67
2019-02-04T09:44:49.638Z,11.90
2019-02-04T09:47:20.758Z,13.03
2019-02-04T09:49:53.541Z,13.13
2019-02-04T09:52:24.435Z,15.23
2019-02-04T09:54:55.325Z,12.47
2019-02-04T09:57:26.270Z,10.27
2019-02-04T09:59:57.230Z,10.30
2019-02-04T10:02:28.123Z,9.87
2019-02-04T10:04:59.034Z,10.70
2019-02-04T10:07:29.924Z,9.50
2019-02-04T10:10:00.795Z,12.30
2019-02-04T10:12:31.704Z,14.40
2019-02-04T10:15:02.608Z,9.93
2019-02-04T10:17:37.298Z,14.37
2019-02-04T10:20:09.241Z,12.47
2019-02-04T10:22:40.184Z,10.77
2019-02-04T10:25:12.747Z,12.27
2019-02-04T10:27:43.707Z,11.47
2019-02-04T10:30:17.575Z,9.53
2019-02-04T10:32:49.010Z,10.10
2019-02-04T10:35:20.588Z,13.07
2019-02-04T10:37:53.169Z,13.50
2019-02-04T10:40:25.464Z,9.73
2019-02-04T10:42:56.418Z,8.40
2019-02-04T10:45:27.504Z,11.83
2019-02-04T10:47:59.400Z,9.70
2019-02-04T10:50:32.851Z,10.17
2019-02-04T10:53:04.237Z,8.47
2019-02-04T10:55:35.132Z,7.60
2019-02-04T10:58:08.457Z,6.30
2019-02-04T11:00:40.088Z,7.50
2019-02-04T11:03:11.131Z,9.00
2019-02-04T11:05:42.848Z,9.73
2019-02-04T11:08:14.234Z,12.23
2019-02-04T11:10:45.183Z,8.58
2019-02-04T11:13:17.743Z,9.57
2019-02-04T11:15:50.666Z,9.93
2019-02-04T11:18:21.821Z,7.80
2019-02-04T11:20:58.239Z,9.85
2019-02-04T11:23:25.314Z,9.70
2019-02-04T11:25:56.272Z,8.33
2019-02-04T11:28:27.118Z,8.88
2019-02-04T11:31:00.608Z,9.78
2019-02-04T11:33:31.615Z,6.93
2019-02-04T11:36:02.523Z,7.58
2019-02-04T11:38:36.148Z,8.18
2019-02-04T11:41:07.321Z,8.18
2019-02-04T11:43:38.216Z,8.78
2019-02-04T11:46:09.120Z,8.23
2019-02-04T11:48:40.345Z,8.77
2019-02-04T11:51:11.393Z,9.60
2019-02-04T11:53:42.458Z,8.83
2019-02-04T11:56:13.355Z,9.80
2019-02-04T11:58:44.251Z,8.83
2019-02-04T12:01:15.343Z,7.97
2019-02-04T12:03:46.223Z,8.97
2019-02-04T12:06:17.616Z,11.20
2019-02-04T12:08:48.968Z,7.85
2019-02-04T12:11:21.728Z,9.88
2019-02-04T12:13:52.618Z,10.40
2019-02-04T12:16:23.509Z,10.05
2019-02-04T12:18:54.505Z,10.32
2019-02-04T12:21:25.559Z,8.45
2019-02-04T12:23:56.504Z,10.75
2019-02-04T12:26:27.429Z,9.55
2019-02-04T12:28:58.338Z,9.87
2019-02-04T12:31:29.364Z,7.40
2019-02-04T12:34:00.230Z,10.23
2019-02-04T12:36:31.168Z,7.92
2019-02-04T12:39:02.244Z,7.23
2019-02-04T12:41:33.389Z,7.62
2019-02-04T12:44:04.714Z,10.65
2019-02-04T12:46:35.606Z,7.87
2019-02-04T12:49:07.121Z,8.68
2019-02-04T12:51:38.039Z,7.17
2019-02-04T12:54:09.099Z,9.63
2019-02-04T12:56:40.381Z,9.13
2019-02-04T12:59:11.301Z,7.90
2019-02-04T13:01:42.276Z,9.23
2019-02-04T13:04:13.278Z,8.68
2019-02-04T13:06:46.865Z,7.85
2019-02-04T13:09:16.750Z,10.40
2019-02-04T13:11:48.840Z,9.08
2019-02-04T13:14:19.800Z,6.17
2019-02-04T13:16:50.728Z,8.50
2019-02-04T13:19:23.645Z,7.97
2019-02-04T13:21:54.942Z,9.03
2019-02-04T13:24:25.805Z,7.45
2019-02-04T13:26:56.735Z,10.45
2019-02-04T13:29:27.910Z,5.87
2019-02-04T13:31:58.893Z,7.33
2019-02-04T13:34:30.276Z,7.30
2019-02-04T13:37:01.184Z,10.10
2019-02-04T13:39:32.276Z,8.23
2019-02-04T13:42:03.401Z,10.23
2019-02-04T13:44:34.512Z,8.20
2019-02-04T13:47:06.106Z,9.03
2019-02-04T13:49:37.788Z,8.27
2019-02-04T13:52:09.063Z,8.10
2019-02-04T13:54:39.954Z,11.20
2019-02-04T13:57:10.974Z,7.00
2019-02-04T13:59:42.246Z,9.23
2019-02-04T14:02:13.546Z,8.23
2019-02-04T14:04:44.591Z,8.07
2019-02-04T14:07:16.611Z,6.63
2019-02-04T14:09:47.870Z,7.00
2019-02-04T14:12:18.900Z,6.83
2019-02-04T14:14:50.011Z,9.60
2019-02-04T14:17:20.885Z,7.53
2019-02-04T14:19:51.746Z,7.27
2019-02-04T14:22:22.734Z,6.77
2019-02-04T14:24:53.898Z,9.80
2019-02-04T14:27:24.801Z,13.40
2019-02-04T14:29:55.796Z,7.80
2019-02-04T14:32:26.658Z,6.90
2019-02-04T14:34:57.616Z,13.77
2019-02-04T14:37:28.956Z,5.73
2019-02-04T14:39:59.910Z,8.57
2019-02-04T14:42:30.805Z,8.23
2019-02-04T14:45:33.719Z,5.70
2019-02-04T14:49:00.825Z,10.03
2019-02-04T14:51:58.811Z,8.40
2019-02-04T14:55:13.656Z,7.00
2019-02-04T14:58:03.134Z,8.60
2019-02-04T15:00:44.306Z,8.07
2019-02-04T15:03:57.861Z,7.40
2019-02-04T15:06:58.479Z,8.13
2019-02-04T15:10:28.740Z,8.63
2019-02-04T15:13:30.777Z,9.53
2019-02-04T15:16:33.317Z,5.60
2019-02-04T15:20:15.739Z,6.30
2019-02-04T15:23:35.004Z,5.93
2019-02-04T15:26:43.058Z,7.70
2019-02-04T15:29:53.227Z,9.30
2019-02-04T15:32:46.291Z,4.07
2019-02-04T15:36:21.409Z,7.40
2019-02-04T15:38:59.613Z,7.30
2019-02-04T15:42:31.642Z,6.17
2019-02-04T15:45:39.149Z,5.60
2019-02-04T15:48:20.680Z,7.67
2019-02-04T15:51:11.221Z,5.27
2019-02-04T15:53:42.099Z,6.27
2019-02-04T15:56:14.650Z,6.33
2019-02-04T15:58:45.649Z,7.57
2019-02-04T16:01:19.435Z,6.43
2019-02-04T16:03:50.579Z,4.97
2019-02-04T16:06:23.410Z,4.17
2019-02-04T16:08:54.949Z,5.33
2019-02-04T16:11:25.986Z,6.50
2019-02-04T16:13:57.922Z,6.10
2019-02-04T16:16:29.093Z,4.20
2019-02-04T16:19:00.245Z,6.43
2019-02-04T16:21:34.173Z,4.80
2019-02-04T16:24:04.165Z,5.23
2019-02-04T16:26:35.164Z,3.27
2019-02-04T16:29:07.159Z,3.47
2019-02-04T16:31:38.169Z,4.60
2019-02-04T16:34:09.182Z,3.30
2019-02-04T16:36:40.234Z,8.63
2019-02-04T16:39:12.632Z,5.53
2019-02-04T16:41:43.572Z,6.63
2019-02-04T16:44:14.752Z,6.13
2019-02-04T16:46:47.084Z,10.23
2019-02-04T16:49:19.083Z,5.90
2019-02-04T16:51:49.996Z,9.57
2019-02-04T16:54:21.254Z,11.03
2019-02-04T16:56:52.355Z,5.17
2019-02-04T16:59:23.510Z,6.97
2019-02-04T17:01:54.477Z,9.43
2019-02-04T17:04:25.512Z,5.47
2019-02-04T17:06:56.418Z,5.53
2019-02-04T17:09:27.374Z,6.83
2019-02-04T17:11:58.853Z,5.87
2019-02-04T17:14:32.402Z,5.90
2019-02-04T17:17:04.732Z,9.07
2019-02-04T17:19:35.710Z,5.60
2019-02-04T17:22:06.735Z,5.53
2019-02-04T17:24:38.002Z,6.00
2019-02-04T17:27:09.093Z,5.97
2019-02-04T17:29:40.143Z,5.43
2019-02-04T17:32:11.091Z,4.43
2019-02-04T17:34:42.118Z,5.70
2019-02-04T17:37:13.279Z,4.67
2019-02-04T17:39:45.369Z,4.70
2019-02-04T17:42:16.365Z,5.77
2019-02-04T17:44:47.333Z,8.57
2019-02-04T17:47:18.356Z,7.67
2019-02-04T17:49:49.774Z,7.90
2019-02-04T17:52:20.716Z,5.00
2019-02-04T17:54:52.005Z,6.67
2019-02-04T17:57:23.037Z,11.47
2019-02-04T17:59:53.967Z,6.67
2019-02-04T18:02:24.938Z,5.43
2019-02-04T18:04:56.236Z,5.40
2019-02-04T18:07:27.959Z,7.17
2019-02-04T18:09:58.992Z,3.73
2019-02-04T18:12:30.097Z,4.87
2019-02-04T18:15:01.052Z,4.67
2019-02-04T18:17:33.931Z,3.80
2019-02-04T18:20:05.998Z,3.93
2019-02-04T18:22:36.995Z,5.10
2019-02-04T18:25:09.043Z,4.17
2019-02-04T18:27:40.210Z,3.90
2019-02-04T18:30:14.399Z,5.80
2019-02-04T18:32:46.364Z,5.17
2019-02-04T18:35:17.842Z,5.13
2019-02-04T18:37:50.120Z,4.80
2019-02-04T18:40:21.253Z,4.00
2019-02-04T18:42:53.017Z,4.77
2019-02-04T18:45:26.280Z,3.40
2019-02-04T18:47:57.254Z,3.57
2019-02-04T18:50:28.854Z,5.70
2019-02-04T18:53:01.236Z,6.23
2019-02-04T18:55:36.768Z,4.20
2019-02-04T18:58:08.082Z,4.37
2019-02-04T19:00:39.200Z,6.77
2019-02-04T19:03:17.326Z,7.40
2019-02-04T19:05:43.135Z,3.63
2019-02-04T19:08:14.323Z,3.80
2019-02-04T19:10:45.504Z,2.93
2019-02-04T19:13:16.656Z,4.40
2019-02-04T19:15:47.836Z,4.10
2019-02-04T19:18:20.642Z,2.40
2019-02-04T19:20:52.502Z,4.20
2019-02-04T19:23:23.575Z,4.73
2019-02-04T19:25:54.869Z,3.97
2019-02-04T19:28:26.144Z,3.80
2019-02-04T19:31:17.603Z,3.23
2019-02-04T19:33:48.725Z,3.03
2019-02-04T19:36:19.991Z,4.73
2019-02-04T19:38:52.413Z,3.90
2019-02-04T19:41:23.433Z,6.03
2019-02-04T19:43:54.513Z,3.30
2019-02-04T19:46:25.920Z,4.17
2019-02-04T19:48:57.071Z,3.57
2019-02-04T19:51:28.308Z,6.07
2019-02-04T19:53:59.665Z,3.80
2019-02-04T19:56:31.331Z,4.73
2019-02-04T19:59:03.681Z,4.43
2019-02-04T20:01:34.700Z,7.70
2019-02-04T20:04:06.187Z,5.60
2019-02-04T20:06:43.051Z,3.60
2019-02-04T20:09:14.139Z,4.27
2019-02-04T20:11:45.260Z,3.47
2019-02-04T20:14:16.632Z,3.80
2019-02-04T20:16:47.700Z,5.90
2019-02-04T20:19:18.761Z,3.87
2019-02-04T20:21:50.170Z,4.63
2019-02-04T20:24:32.617Z,7.90
2019-02-04T20:26:53.979Z,4.80
2019-02-04T20:29:24.990Z,3.73
2019-02-04T20:31:56.103Z,3.97
2019-02-04T20:34:27.347Z,5.87
2019-02-04T20:36:58.314Z,6.00
2019-02-04T20:39:29.521Z,5.43
2019-02-04T20:42:00.641Z,6.20
2019-02-04T20:44:32.932Z,5.67
2019-02-04T20:47:05.576Z,4.80
2019-02-04T20:49:36.606Z,4.80
2019-02-04T20:52:07.710Z,4.50
2019-02-04T20:54:44.949Z,6.13
2019-02-04T20:57:12.108Z,8.73
2019-02-04T20:59:43.248Z,6.30
2019-02-04T21:02:14.418Z,5.20
2019-02-04T21:04:45.569Z,6.37
2019-02-04T21:07:16.788Z,5.70
2019-02-04T21:09:47.720Z,5.43
2019-02-04T21:12:18.986Z,3.20
2019-02-04T21:14:50.145Z,5.17
2019-02-04T21:17:21.339Z,3.70
2019-02-04T21:19:52.621Z,4.20
2019-02-04T21:22:23.548Z,4.53
2019-02-04T21:24:56.473Z,3.70
2019-02-04T21:27:27.215Z,5.00
2019-02-04T21:29:58.252Z,6.37
2019-02-04T21:32:29.564Z,8.47
2019-02-04T21:35:00.517Z,5.20
2019-02-04T21:37:31.534Z,4.70
2019-02-04T21:40:02.544Z,4.30
2019-02-04T21:42:33.465Z,5.50
2019-02-04T21:45:07.638Z,5.50
2019-02-04T21:47:38.591Z,4.33
2019-02-04T21:50:12.895Z,5.63
2019-02-04T21:52:44.732Z,5.83
2019-02-04T21:55:16.321Z,5.20
2019-02-04T21:57:48.215Z,5.57
2019-02-04T22:00:21.370Z,5.57
2019-02-04T22:02:52.785Z,5.93
2019-02-04T22:05:26.425Z,5.20
2019-02-04T22:07:57.798Z,7.80
2019-02-04T22:10:29.552Z,3.83
2019-02-04T22:13:00.538Z,4.03
2019-02-04T22:15:31.464Z,6.90
2019-02-04T22:18:02.470Z,5.63
2019-02-04T22:20:33.453Z,7.23
2019-02-04T22:23:04.405Z,7.97
2019-02-04T22:25:35.301Z,5.63
2019-02-04T22:28:07.028Z,3.80
2019-02-04T22:30:38.025Z,6.30
2019-02-04T22:33:09.235Z,5.63
2019-02-04T22:35:40.310Z,6.23
2019-02-04T22:38:11.381Z,5.97
2019-02-04T22:40:44.187Z,4.70
2019-02-04T22:43:15.092Z,6.53
2019-02-04T22:45:47.116Z,5.00
2019-02-04T22:48:18.586Z,7.37
2019-02-04T22:50:49.659Z,4.23
2019-02-04T22:53:20.808Z,7.47
2019-02-04T22:55:53.214Z,5.87
2019-02-04T22:58:24.495Z,5.93
2019-02-04T23:01:17.288Z,6.13
2019-02-04T23:03:48.302Z,3.97
2019-02-04T23:06:19.207Z,5.73
2019-02-04T23:08:50.125Z,4.47
2019-02-04T23:11:21.639Z,4.33
2019-02-04T23:13:58.624Z,5.90
2019-02-04T23:16:29.561Z,4.40
2019-02-04T23:19:01.908Z,5.00
2019-02-04T23:21:32.821Z,4.17
2019-02-04T23:24:03.984Z,5.03
2019-02-04T23:26:34.894Z,6.83
2019-02-04T23:29:06.320Z,4.83
2019-02-04T23:31:37.158Z,4.23
2019-02-04T23:34:08.084Z,5.47
2019-02-04T23:36:39.176Z,5.07
2019-02-04T23:39:11.034Z,4.00
2019-02-04T23:41:41.994Z,5.07
2019-02-04T23:44:12.860Z,6.23
2019-02-04T23:46:43.828Z,8.20
2019-02-04T23:49:15.786Z,5.87
2019-02-04T23:51:47.485Z,6.87
2019-02-04T23:54:18.879Z,6.00
2019-02-04T23:56:50.791Z,8.00
2019-02-04T23:59:22.778Z,8.80
